createdAt,value
2022-10-09T00:00:31.344Z,1
2022-10-09T00:02:14.764Z,2
2022-10-09T00:03:58.204Z,2
2022-10-09T00:05:41.517Z,2
2022-10-09T00:07:25.013Z,2
2022-10-09T00:09:08.317Z,1
2022-10-09T00:10:51.736Z,2
2022-10-09T00:12:35.457Z,1
2022-10-09T00:14:18.857Z,2
2022-10-09T00:16:02.219Z,2
2022-10-09T00:17:45.607Z,2
2022-10-09T00:19:29.053Z,1
2022-10-09T00:21:12.411Z,1
2022-10-09T00:22:55.814Z,1
2022-10-09T00:24:39.251Z,1
2022-10-09T00:26:22.579Z,1
2022-10-09T00:29:49.092Z,2
2022-10-09T00:31:32.465Z,1
2022-10-09T00:33:15.868Z,1
2022-10-09T00:34:59.293Z,1
2022-10-09T00:36:42.639Z,1
2022-10-09T00:38:26.061Z,2
2022-10-09T00:40:09.434Z,1
2022-10-09T00:41:52.907Z,1
2022-10-09T00:43:36.274Z,1
2022-10-09T00:45:19.939Z,0
2022-10-09T00:47:03.402Z,2
2022-10-09T00:48:46.760Z,0
2022-10-09T00:50:30.135Z,1
2022-10-09T00:52:13.528Z,1
2022-10-09T00:53:56.907Z,1
2022-10-09T00:55:40.357Z,1
2022-10-09T00:57:23.753Z,1
2022-10-09T00:59:07.131Z,1
2022-10-09T01:00:50.803Z,1
2022-10-09T01:02:34.265Z,0
2022-10-09T01:04:17.590Z,1
2022-10-09T01:06:01.003Z,1
2022-10-09T01:07:44.424Z,1
2022-10-09T01:09:27.816Z,1
2022-10-09T01:11:11.186Z,1
2022-10-09T01:12:54.652Z,1
2022-10-09T01:14:38.002Z,2
2022-10-09T01:16:21.684Z,1
2022-10-09T01:18:05.075Z,1
2022-10-09T01:19:48.520Z,2
2022-10-09T01:21:31.868Z,1
2022-10-09T01:23:15.277Z,0
2022-10-09T01:24:58.724Z,1
2022-10-09T01:26:42.073Z,1
2022-10-09T01:28:25.487Z,1
2022-10-09T01:33:34.717Z,1
2022-10-09T01:35:18.084Z,1
2022-10-09T01:37:01.483Z,1
2022-10-09T01:38:44.944Z,1
2022-10-09T01:40:28.276Z,1
2022-10-09T01:42:11.689Z,1
2022-10-09T01:43:55.135Z,1
2022-10-09T01:45:38.484Z,1
2022-10-09T01:50:47.704Z,1
2022-10-09T01:52:31.140Z,1
2022-10-09T01:54:14.494Z,1
2022-10-09T01:55:57.913Z,1
2022-10-09T01:57:41.339Z,1
2022-10-09T01:59:24.685Z,1
2022-10-09T02:01:08.098Z,1
2022-10-09T02:02:51.526Z,1
2022-10-09T02:08:00.822Z,1
2022-10-09T02:09:44.178Z,1
2022-10-09T02:11:27.541Z,0
2022-10-09T02:13:10.893Z,1
2022-10-09T02:14:54.306Z,1
2022-10-09T02:16:37.752Z,1
2022-10-09T02:18:21.095Z,1
2022-10-09T02:20:04.503Z,0
2022-10-09T02:21:47.952Z,1
2022-10-09T02:23:31.634Z,1
2022-10-09T02:25:14.994Z,1
2022-10-09T02:26:58.384Z,1
2022-10-09T02:28:41.827Z,1
2022-10-09T02:30:25.181Z,0
2022-10-09T02:32:08.602Z,1
2022-10-09T02:33:51.963Z,1
2022-10-09T02:35:35.357Z,1
2022-10-09T02:37:18.792Z,1
2022-10-09T02:40:45.229Z,0
2022-10-09T02:42:28.710Z,1
2022-10-09T02:44:12.077Z,2
2022-10-09T02:45:55.436Z,0
2022-10-09T02:47:38.830Z,1
2022-10-09T02:49:22.207Z,1
2022-10-09T02:51:05.606Z,1
2022-10-09T02:52:49.046Z,0
2022-10-09T02:56:15.483Z,1
2022-10-09T02:57:58.881Z,1
2022-10-09T02:59:42.318Z,1
2022-10-09T03:01:25.693Z,1
2022-10-09T03:03:09.084Z,1
2022-10-09T03:04:52.461Z,2
2022-10-09T03:06:35.883Z,1
2022-10-09T03:08:19.283Z,1
2022-10-09T03:11:45.724Z,1
2022-10-09T03:13:29.134Z,1
2022-10-09T03:15:12.577Z,0
2022-10-09T03:16:55.906Z,1
2022-10-09T03:18:39.376Z,0
2022-10-09T03:20:22.700Z,1
2022-10-09T03:22:06.181Z,1
2022-10-09T03:23:50.024Z,1
2022-10-09T03:25:32.895Z,1
2022-10-09T03:28:59.375Z,1
2022-10-09T03:30:42.896Z,1
2022-10-09T03:32:26.160Z,1
2022-10-09T03:34:09.581Z,1
2022-10-09T03:35:52.970Z,0
2022-10-09T03:37:36.384Z,1
2022-10-09T03:39:19.815Z,1
2022-10-09T03:41:03.140Z,1
2022-10-09T03:42:46.546Z,2
2022-10-09T03:47:55.785Z,1
2022-10-09T03:49:39.241Z,1
2022-10-09T03:51:22.564Z,0
2022-10-09T03:53:05.982Z,1
2022-10-09T03:54:49.458Z,0
2022-10-09T03:56:32.804Z,1
2022-10-09T03:58:16.198Z,1
2022-10-09T03:59:59.543Z,1
2022-10-09T04:05:08.810Z,1
2022-10-09T04:06:52.206Z,1
2022-10-09T04:08:35.660Z,1
2022-10-09T04:10:19.052Z,1
2022-10-09T04:12:02.392Z,1
2022-10-09T04:13:45.763Z,1
2022-10-09T04:15:29.174Z,1
2022-10-09T04:17:12.609Z,0
2022-10-09T04:20:39.036Z,1
2022-10-09T04:22:22.457Z,1
2022-10-09T04:24:05.898Z,1
2022-10-09T04:25:49.237Z,1
2022-10-09T04:27:32.650Z,1
2022-10-09T04:29:16.081Z,1
2022-10-09T04:30:59.425Z,1
2022-10-09T04:32:42.854Z,1
2022-10-09T04:37:52.138Z,1
2022-10-09T04:39:35.449Z,1
2022-10-09T04:41:18.858Z,1
2022-10-09T04:43:02.316Z,0
2022-10-09T04:44:45.630Z,1
2022-10-09T04:46:29.299Z,1
2022-10-09T04:48:12.492Z,1
2022-10-09T04:49:55.823Z,1
2022-10-09T04:51:39.545Z,1
2022-10-09T04:53:22.937Z,1
2022-10-09T04:55:06.315Z,1
2022-10-09T04:56:49.716Z,1
2022-10-09T04:58:33.139Z,1
2022-10-09T05:00:16.505Z,1
2022-10-09T05:01:59.900Z,0
2022-10-09T05:03:43.362Z,2
2022-10-09T05:07:09.775Z,1
2022-10-09T05:08:53.190Z,1
2022-10-09T05:10:36.627Z,0
2022-10-09T05:12:19.994Z,0
2022-10-09T05:14:03.423Z,1
2022-10-09T05:15:46.749Z,1
2022-10-09T05:17:30.148Z,1
2022-10-09T05:19:13.623Z,2
2022-10-09T05:20:57.270Z,1
2022-10-09T05:22:40.710Z,0
2022-10-09T05:24:24.043Z,1
2022-10-09T05:26:07.524Z,0
2022-10-09T05:27:50.857Z,1
2022-10-09T05:29:34.267Z,0
2022-10-09T05:31:17.672Z,1
2022-10-09T05:33:01.027Z,2
2022-10-09T05:36:27.601Z,1
2022-10-09T05:38:10.896Z,1
2022-10-09T05:39:54.377Z,0
2022-10-09T05:41:37.752Z,1
2022-10-09T05:43:21.091Z,1
2022-10-09T05:45:04.512Z,1
2022-10-09T05:46:47.940Z,1
2022-10-09T05:48:31.278Z,1
2022-10-09T05:50:14.968Z,1
2022-10-09T05:51:58.391Z,1
2022-10-09T05:53:41.866Z,1
2022-10-09T05:55:25.165Z,1
2022-10-09T05:57:08.564Z,1
2022-10-09T05:58:52.013Z,1
2022-10-09T06:00:35.347Z,1
2022-10-09T06:02:18.765Z,1
2022-10-09T06:07:28.022Z,1
2022-10-09T06:09:11.380Z,1
2022-10-09T06:10:54.787Z,1
2022-10-09T06:12:38.209Z,1
2022-10-09T06:14:21.585Z,1
2022-10-09T06:16:04.985Z,1
2022-10-09T06:17:48.417Z,1
2022-10-09T06:19:31.792Z,1
2022-10-09T06:22:58.399Z,1
2022-10-09T06:24:41.621Z,0
2022-10-09T06:26:25.048Z,1
2022-10-09T06:28:08.463Z,0
2022-10-09T06:29:51.822Z,1
2022-10-09T06:31:35.261Z,1
2022-10-09T06:33:18.693Z,1
2022-10-09T06:35:02.073Z,31
2022-10-09T06:40:11.325Z,36
2022-10-09T06:41:54.701Z,36
2022-10-09T06:43:38.091Z,40
2022-10-09T06:45:21.447Z,41
2022-10-09T06:47:04.913Z,42
2022-10-09T06:48:48.251Z,44
2022-10-09T06:50:31.629Z,46
2022-10-09T06:52:15.070Z,53
2022-10-09T06:55:41.505Z,55
2022-10-09T06:57:24.967Z,50
2022-10-09T06:59:08.399Z,54
2022-10-09T07:00:51.674Z,52
2022-10-09T07:02:35.137Z,52
2022-10-09T07:04:18.545Z,59
2022-10-09T07:06:01.923Z,59
2022-10-09T07:07:45.255Z,457
2022-10-09T07:11:11.745Z,603
2022-10-09T07:12:55.203Z,629
2022-10-09T07:14:38.669Z,559
2022-10-09T07:16:21.925Z,637
2022-10-09T07:18:05.373Z,656
2022-10-09T07:19:48.730Z,680
2022-10-09T07:21:32.129Z,690
2022-10-09T07:23:15.588Z,705
2022-10-09T07:28:24.838Z,686
2022-10-09T07:30:08.160Z,653
2022-10-09T07:31:51.579Z,659
2022-10-09T07:33:35.106Z,653
2022-10-09T07:35:18.356Z,647
2022-10-09T07:37:01.805Z,628
2022-10-09T07:38:45.141Z,622
2022-10-09T07:40:28.536Z,619
2022-10-09T07:45:37.860Z,633
2022-10-09T07:47:21.265Z,648
2022-10-09T07:49:04.588Z,663
2022-10-09T07:50:47.998Z,683
2022-10-09T07:52:31.439Z,700
2022-10-09T07:54:14.792Z,711
2022-10-09T07:55:58.208Z,724
2022-10-09T07:57:41.566Z,737
2022-10-09T07:59:24.988Z,726
2022-10-09T08:02:51.468Z,748
2022-10-09T08:04:34.819Z,754
2022-10-09T08:06:18.264Z,773
2022-10-09T08:08:01.696Z,648
2022-10-09T08:09:45.006Z,777
2022-10-09T08:11:28.430Z,777
2022-10-09T08:13:11.803Z,777
2022-10-09T08:16:38.931Z,329
2022-10-09T08:18:22.359Z,327
2022-10-09T08:20:05.681Z,310
2022-10-09T08:21:49.142Z,302
2022-10-09T08:23:32.521Z,639
2022-10-09T08:25:15.875Z,592
2022-10-09T08:26:59.372Z,531
2022-10-09T08:28:42.654Z,563
2022-10-09T08:30:26.059Z,517
2022-10-09T08:32:09.751Z,464
2022-10-09T08:33:53.231Z,432
2022-10-09T08:35:36.610Z,406
2022-10-09T08:37:19.943Z,396
2022-10-09T08:39:03.385Z,393
2022-10-09T08:40:46.733Z,385
2022-10-09T08:42:30.141Z,376
2022-10-09T08:44:13.683Z,360
2022-10-09T08:49:22.808Z,382
2022-10-09T08:51:06.200Z,340
2022-10-09T08:52:49.697Z,337
2022-10-09T08:54:33.007Z,341
2022-10-09T08:56:16.373Z,332
2022-10-09T08:57:59.792Z,339
2022-10-09T08:59:43.143Z,338
2022-10-09T09:01:26.568Z,328
2022-10-09T09:03:10.241Z,312
2022-10-09T09:04:53.674Z,328
2022-10-09T09:06:37.108Z,333
2022-10-09T09:08:20.488Z,342
2022-10-09T09:10:03.891Z,359
2022-10-09T09:11:47.235Z,337
2022-10-09T09:13:30.623Z,352
2022-10-09T09:15:14.065Z,373
2022-10-09T09:18:40.525Z,447
2022-10-09T09:20:23.900Z,496
2022-10-09T09:22:07.403Z,494
2022-10-09T09:23:50.728Z,476
2022-10-09T09:25:34.107Z,752
2022-10-09T09:27:17.482Z,698
2022-10-09T09:29:00.898Z,755
2022-10-09T09:30:44.324Z,769
2022-10-09T09:34:10.775Z,770
2022-10-09T09:35:54.149Z,779
2022-10-09T09:37:37.659Z,777
2022-10-09T09:39:20.940Z,777
2022-10-09T09:41:04.353Z,778
2022-10-09T09:42:47.858Z,778
2022-10-09T09:44:31.124Z,778
2022-10-09T09:46:14.557Z,777
2022-10-09T09:49:41.062Z,778
2022-10-09T09:51:24.397Z,778
2022-10-09T09:53:07.774Z,778
2022-10-09T09:54:51.170Z,739
2022-10-09T09:56:34.604Z,779
2022-10-09T09:58:17.976Z,779
2022-10-09T10:00:01.382Z,778
2022-10-09T10:01:44.807Z,777
2022-10-09T10:05:11.263Z,778
2022-10-09T10:06:54.647Z,777
2022-10-09T10:08:38.087Z,778
2022-10-09T10:10:21.415Z,778
2022-10-09T10:12:04.875Z,778
2022-10-09T10:13:48.264Z,778
2022-10-09T10:15:31.654Z,778
2022-10-09T10:17:15.055Z,777
2022-10-09T10:20:41.477Z,778
2022-10-09T10:22:24.897Z,778
2022-10-09T10:24:08.273Z,778
2022-10-09T10:25:51.699Z,778
2022-10-09T10:27:35.100Z,778
2022-10-09T10:29:18.536Z,778
2022-10-09T10:31:01.959Z,778
2022-10-09T10:32:45.281Z,778
2022-10-09T10:36:11.712Z,778
2022-10-09T10:37:55.193Z,779
2022-10-09T10:39:38.638Z,778
2022-10-09T10:41:21.955Z,778
2022-10-09T10:43:05.342Z,778
2022-10-09T10:44:48.712Z,778
2022-10-09T10:46:32.113Z,778
2022-10-09T10:48:15.538Z,777
2022-10-09T10:51:41.973Z,778
2022-10-09T10:53:25.428Z,699
2022-10-09T10:55:08.752Z,778
2022-10-09T10:56:52.214Z,778
2022-10-09T10:58:35.618Z,778
2022-10-09T11:00:18.935Z,778
2022-10-09T11:02:02.384Z,778
2022-10-09T11:03:45.814Z,777
2022-10-09T11:08:55.076Z,778
2022-10-09T11:10:38.371Z,778
2022-10-09T11:12:21.813Z,778
2022-10-09T11:14:05.283Z,778
2022-10-09T11:15:48.620Z,778
2022-10-09T11:17:32.046Z,700
2022-10-09T11:19:15.360Z,726
2022-10-09T11:20:58.763Z,778
2022-10-09T11:26:08.005Z,779
2022-10-09T11:27:51.497Z,778
2022-10-09T11:29:34.808Z,778
2022-10-09T11:31:18.245Z,779
2022-10-09T11:33:01.704Z,778
2022-10-09T11:34:44.985Z,778
2022-10-09T11:36:28.410Z,779
2022-10-09T11:38:11.755Z,778
2022-10-09T11:39:55.295Z,777
2022-10-09T11:41:38.923Z,778
2022-10-09T11:43:22.327Z,778
2022-10-09T11:45:05.669Z,740
2022-10-09T11:46:49.088Z,778
2022-10-09T11:48:32.501Z,760
2022-10-09T11:50:15.845Z,778
2022-10-09T11:51:59.254Z,753
2022-10-09T11:53:42.702Z,778
2022-10-09T11:57:09.107Z,778
2022-10-09T11:58:52.537Z,778
2022-10-09T12:00:35.894Z,673
2022-10-09T12:02:19.300Z,757
2022-10-09T12:04:02.791Z,778
2022-10-09T12:05:46.080Z,778
2022-10-09T12:07:29.552Z,677
2022-10-09T12:09:12.956Z,598
2022-10-09T12:12:39.424Z,612
2022-10-09T12:14:22.862Z,607
2022-10-09T12:16:06.148Z,582
2022-10-09T12:17:49.546Z,491
2022-10-09T12:19:32.929Z,563
2022-10-09T12:21:16.339Z,576
2022-10-09T12:22:59.837Z,586
2022-10-09T12:24:43.270Z,684
2022-10-09T12:28:09.607Z,748
2022-10-09T12:29:53.053Z,748
2022-10-09T12:31:36.461Z,741
2022-10-09T12:33:19.851Z,748
2022-10-09T12:35:03.192Z,745
2022-10-09T12:36:46.607Z,735
2022-10-09T12:38:30.024Z,730
2022-10-09T12:40:13.373Z,778
2022-10-09T12:43:39.888Z,778
2022-10-09T12:45:23.311Z,778
2022-10-09T12:47:06.642Z,778
2022-10-09T12:48:50.040Z,776
2022-10-09T12:50:33.441Z,685
2022-10-09T12:52:16.834Z,720
2022-10-09T12:54:00.283Z,778
2022-10-09T12:55:43.601Z,778
2022-10-09T13:00:52.855Z,775
2022-10-09T13:02:36.282Z,739
2022-10-09T13:04:19.696Z,778
2022-10-09T13:06:03.059Z,778
2022-10-09T13:07:46.465Z,778
2022-10-09T13:09:29.924Z,777
2022-10-09T13:11:13.236Z,778
2022-10-09T13:12:56.739Z,774
2022-10-09T13:16:23.144Z,770
2022-10-09T13:18:06.495Z,771
2022-10-09T13:19:49.931Z,646
2022-10-09T13:21:33.294Z,627
2022-10-09T13:23:16.701Z,777
2022-10-09T13:25:00.196Z,769
2022-10-09T13:26:43.549Z,777
2022-10-09T13:28:26.965Z,773
2022-10-09T13:30:10.582Z,684
2022-10-09T13:31:54.041Z,692
2022-10-09T13:33:37.390Z,657
2022-10-09T13:35:20.781Z,601
2022-10-09T13:37:04.173Z,621
2022-10-09T13:38:47.627Z,645
2022-10-09T13:40:31.065Z,581
2022-10-09T13:42:14.347Z,508
2022-10-09T13:45:40.952Z,582
2022-10-09T13:47:24.297Z,572
2022-10-09T13:49:07.730Z,536
2022-10-09T13:50:51.037Z,527
2022-10-09T13:52:34.687Z,571
2022-10-09T13:54:17.823Z,654
2022-10-09T13:56:01.235Z,703
2022-10-09T13:57:44.667Z,707
2022-10-09T14:01:11.120Z,654
2022-10-09T14:02:54.516Z,651
2022-10-09T14:04:37.968Z,689
2022-10-09T14:06:21.297Z,613
2022-10-09T14:08:04.720Z,556
2022-10-09T14:09:48.059Z,635
2022-10-09T14:11:31.484Z,683
2022-10-09T14:13:14.840Z,622
2022-10-09T14:14:58.540Z,587
2022-10-09T14:16:41.949Z,640
2022-10-09T14:18:25.371Z,591
2022-10-09T14:20:08.734Z,560
2022-10-09T14:21:52.147Z,622
2022-10-09T14:23:35.589Z,620
2022-10-09T14:25:18.930Z,619
2022-10-09T14:27:02.332Z,612
2022-10-09T14:30:28.800Z,555
2022-10-09T14:32:12.197Z,566
2022-10-09T14:33:55.607Z,512
2022-10-09T14:35:39.052Z,551
2022-10-09T14:37:22.375Z,609
2022-10-09T14:39:05.817Z,759
2022-10-09T14:40:49.172Z,778
2022-10-09T14:42:32.575Z,777
2022-10-09T14:45:59.093Z,754
2022-10-09T14:47:42.443Z,754
2022-10-09T14:49:25.861Z,750
2022-10-09T14:51:09.222Z,699
2022-10-09T14:52:52.620Z,678
2022-10-09T14:54:36.066Z,652
2022-10-09T14:56:19.412Z,599
2022-10-09T14:58:02.824Z,533
2022-10-09T15:01:29.278Z,533
2022-10-09T15:03:12.677Z,550
2022-10-09T15:04:56.118Z,551
2022-10-09T15:06:39.468Z,513
2022-10-09T15:08:22.867Z,481
2022-10-09T15:10:06.309Z,468
2022-10-09T15:11:49.659Z,428
2022-10-09T15:13:33.079Z,390
2022-10-09T15:16:59.531Z,389
2022-10-09T15:18:42.937Z,379
2022-10-09T15:20:26.355Z,378
2022-10-09T15:22:09.720Z,370
2022-10-09T15:23:53.117Z,356
2022-10-09T15:25:36.558Z,349
2022-10-09T15:27:19.915Z,345
2022-10-09T15:29:03.315Z,340
2022-10-09T15:32:29.840Z,333
2022-10-09T15:34:13.192Z,328
2022-10-09T15:35:56.603Z,323
2022-10-09T15:37:39.959Z,314
2022-10-09T15:39:23.374Z,307
2022-10-09T15:41:06.807Z,298
2022-10-09T15:42:50.151Z,290
2022-10-09T15:44:33.563Z,265
2022-10-09T15:49:42.808Z,269
2022-10-09T15:51:26.247Z,263
2022-10-09T15:53:09.598Z,256
2022-10-09T15:54:53.014Z,249
2022-10-09T15:56:36.379Z,241
2022-10-09T15:58:19.799Z,233
2022-10-09T16:00:03.217Z,225
2022-10-09T16:01:46.560Z,215
2022-10-09T16:03:30.270Z,207
2022-10-09T16:05:13.668Z,202
2022-10-09T16:06:57.113Z,196
2022-10-09T16:08:40.457Z,192
2022-10-09T16:10:23.863Z,186
2022-10-09T16:12:07.297Z,183
2022-10-09T16:13:50.663Z,177
2022-10-09T16:18:59.925Z,143
2022-10-09T16:20:43.299Z,119
2022-10-09T16:22:26.678Z,122
2022-10-09T16:24:10.084Z,116
2022-10-09T16:25:53.515Z,114
2022-10-09T16:27:36.881Z,91
2022-10-09T16:29:20.275Z,86
2022-10-09T16:32:46.785Z,84
2022-10-09T16:34:30.137Z,80
2022-10-09T16:36:13.544Z,71
2022-10-09T16:37:56.989Z,69
2022-10-09T16:39:40.333Z,61
2022-10-09T16:41:23.751Z,52
2022-10-09T16:43:07.122Z,40
2022-10-09T16:44:50.523Z,41
2022-10-09T16:46:34.212Z,39
2022-10-09T16:48:17.634Z,36
2022-10-09T16:50:01.005Z,32
2022-10-09T16:51:44.414Z,27
2022-10-09T16:53:27.834Z,24
2022-10-09T16:55:11.193Z,22
2022-10-09T16:56:54.612Z,15
2022-10-09T16:58:38.039Z,11
2022-10-09T17:02:05.161Z,7
2022-10-09T17:03:48.497Z,7
2022-10-09T17:05:31.942Z,5
2022-10-09T17:07:15.363Z,17
2022-10-09T17:08:58.691Z,8
2022-10-09T17:10:42.129Z,6
2022-10-09T17:12:25.471Z,9
2022-10-09T17:15:51.969Z,9
2022-10-09T17:17:35.343Z,9
2022-10-09T17:19:18.740Z,9
2022-10-09T17:21:02.200Z,9
2022-10-09T17:22:45.535Z,9
2022-10-09T17:24:28.945Z,9
2022-10-09T17:26:12.374Z,9
2022-10-09T17:31:21.618Z,9
2022-10-09T17:33:04.980Z,9
2022-10-09T17:34:48.375Z,9
2022-10-09T17:36:31.826Z,9
2022-10-09T17:38:15.171Z,10
2022-10-09T17:39:58.582Z,9
2022-10-09T17:41:41.945Z,9
2022-10-09T17:43:25.365Z,9
2022-10-09T17:45:09.054Z,9
2022-10-09T17:46:52.465Z,8
2022-10-09T17:48:35.900Z,5
2022-10-09T17:50:19.242Z,9
2022-10-09T17:52:02.672Z,9
2022-10-09T17:53:46.058Z,9
2022-10-09T17:55:29.429Z,9
2022-10-09T17:57:12.867Z,9
2022-10-09T18:00:39.319Z,9
2022-10-09T18:02:22.711Z,10
2022-10-09T18:04:06.090Z,9
2022-10-09T18:05:49.501Z,9
2022-10-09T18:07:32.909Z,9
2022-10-09T18:09:16.302Z,9
2022-10-09T18:10:59.673Z,8
2022-10-09T18:12:43.114Z,9
2022-10-09T18:16:09.535Z,9
2022-10-09T18:17:52.955Z,9
2022-10-09T18:19:36.329Z,9
2022-10-09T18:21:19.730Z,9
2022-10-09T18:23:03.162Z,8
2022-10-09T18:24:46.514Z,8
2022-10-09T18:26:29.922Z,9
2022-10-09T18:28:13.370Z,9
2022-10-09T18:31:39.790Z,9
2022-10-09T18:33:23.202Z,9
2022-10-09T18:35:06.575Z,10
2022-10-09T18:36:49.972Z,9
2022-10-09T18:38:33.409Z,9
2022-10-09T18:40:16.776Z,9
2022-10-09T18:42:00.175Z,9
2022-10-09T18:43:43.607Z,9
2022-10-09T18:47:10.028Z,9
2022-10-09T18:48:53.450Z,9
2022-10-09T18:50:36.893Z,9
2022-10-09T18:52:20.222Z,9
2022-10-09T18:54:03.653Z,9
2022-10-09T18:55:47.017Z,9
2022-10-09T18:57:30.412Z,9
2022-10-09T18:59:13.861Z,9
2022-10-09T19:02:40.282Z,8
2022-10-09T19:04:23.695Z,8
2022-10-09T19:06:07.078Z,16
2022-10-09T19:07:50.478Z,9
2022-10-09T19:09:33.904Z,8
2022-10-09T19:11:17.259Z,9
2022-10-09T19:13:00.659Z,9
2022-10-09T19:14:44.113Z,9
2022-10-09T19:16:27.791Z,9
2022-10-09T19:18:11.152Z,9
2022-10-09T19:19:54.549Z,9
2022-10-09T19:21:38.005Z,9
2022-10-09T19:23:21.344Z,9
2022-10-09T19:25:04.758Z,9
2022-10-09T19:26:48.188Z,9
2022-10-09T19:28:31.541Z,9
2022-10-09T19:31:58.025Z,9
2022-10-09T19:33:41.394Z,10
2022-10-09T19:35:24.787Z,9
2022-10-09T19:37:08.289Z,10
2022-10-09T19:38:51.585Z,9
2022-10-09T19:40:35.004Z,10
2022-10-09T19:42:18.438Z,9
2022-10-09T19:44:01.790Z,9
2022-10-09T19:47:28.281Z,9
2022-10-09T19:49:11.651Z,9
2022-10-09T19:50:55.043Z,10
2022-10-09T19:52:38.498Z,9
2022-10-09T19:54:21.828Z,9
2022-10-09T19:56:05.239Z,9
2022-10-09T19:57:48.627Z,9
2022-10-09T19:59:32.016Z,9
2022-10-09T20:02:58.531Z,9
2022-10-09T20:04:41.882Z,9
2022-10-09T20:06:25.296Z,10
2022-10-09T20:08:08.761Z,9
2022-10-09T20:09:52.088Z,10
2022-10-09T20:11:35.500Z,9
2022-10-09T20:13:18.871Z,9
2022-10-09T20:15:02.259Z,9
2022-10-09T20:18:28.778Z,10
2022-10-09T20:20:12.225Z,9
2022-10-09T20:21:55.540Z,9
2022-10-09T20:23:38.977Z,9
2022-10-09T20:25:22.328Z,9
2022-10-09T20:27:05.735Z,9
2022-10-09T20:28:49.178Z,9
2022-10-09T20:33:58.342Z,9
2022-10-09T20:35:41.757Z,10
2022-10-09T20:37:25.181Z,10
2022-10-09T20:39:08.545Z,9
2022-10-09T20:40:51.951Z,9
2022-10-09T20:42:35.385Z,9
2022-10-09T20:44:18.731Z,10
2022-10-09T20:49:27.963Z,9
2022-10-09T20:51:11.387Z,10
2022-10-09T20:52:54.767Z,9
2022-10-09T20:54:38.151Z,9
2022-10-09T20:56:21.597Z,9
2022-10-09T20:58:04.958Z,9
2022-10-09T20:59:48.349Z,9
2022-10-09T21:04:57.601Z,8
2022-10-09T21:06:41.043Z,9
2022-10-09T21:08:24.378Z,9
2022-10-09T21:10:07.813Z,9
2022-10-09T21:11:51.165Z,9
2022-10-09T21:13:34.574Z,9
2022-10-09T21:15:18.006Z,9
2022-10-09T21:20:27.246Z,9
2022-10-09T21:22:10.622Z,10
2022-10-09T21:23:54.003Z,9
2022-10-09T21:25:37.469Z,2
2022-10-09T21:27:20.810Z,2
2022-10-09T21:29:04.216Z,2
2022-10-09T21:30:47.584Z,2
2022-10-09T21:32:30.979Z,2
2022-10-09T21:34:14.692Z,1
2022-10-09T21:35:58.101Z,2
2022-10-09T21:37:41.537Z,1
2022-10-09T21:39:24.864Z,2
2022-10-09T21:41:08.298Z,2
2022-10-09T21:42:51.681Z,2
2022-10-09T21:44:35.061Z,10
2022-10-09T21:46:18.497Z,10
2022-10-09T21:49:44.929Z,1
2022-10-09T21:51:28.338Z,1
2022-10-09T21:53:11.783Z,2
2022-10-09T21:54:55.138Z,2
2022-10-09T21:56:38.550Z,2
2022-10-09T21:58:21.912Z,2
2022-10-09T22:00:05.319Z,1
2022-10-09T22:01:48.748Z,2
2022-10-09T22:03:32.429Z,1
2022-10-09T22:05:15.946Z,2
2022-10-09T22:06:59.205Z,2
2022-10-09T22:08:42.645Z,2
2022-10-09T22:10:25.995Z,1
2022-10-09T22:12:09.391Z,1
2022-10-09T22:13:52.840Z,2
2022-10-09T22:15:36.178Z,2
2022-10-09T22:19:02.677Z,1
2022-10-09T22:20:46.119Z,2
2022-10-09T22:22:29.446Z,2
2022-10-09T22:24:12.885Z,2
2022-10-09T22:25:56.254Z,2
2022-10-09T22:27:39.643Z,2
2022-10-09T22:29:23.077Z,2
2022-10-09T22:34:32.327Z,2
2022-10-09T22:36:15.677Z,2
2022-10-09T22:37:59.094Z,1
2022-10-09T22:39:42.528Z,1
2022-10-09T22:41:25.864Z,2
2022-10-09T22:43:09.288Z,2
2022-10-09T22:44:52.640Z,2
2022-10-09T22:46:36.044Z,2
2022-10-09T22:48:19.760Z,2
2022-10-09T22:50:03.169Z,2
2022-10-09T22:51:46.546Z,1
2022-10-09T22:53:29.934Z,2
2022-10-09T22:55:13.374Z,2
2022-10-09T22:56:56.731Z,1
2022-10-09T22:58:40.136Z,1
2022-10-09T23:00:23.576Z,1
2022-10-09T23:02:07.261Z,2
2022-10-09T23:03:50.616Z,2
2022-10-09T23:05:34.025Z,2
2022-10-09T23:07:17.459Z,2
2022-10-09T23:09:00.895Z,2
2022-10-09T23:10:44.223Z,2
2022-10-09T23:12:27.591Z,1
2022-10-09T23:14:10.993Z,2
2022-10-09T23:15:54.700Z,2
2022-10-09T23:17:38.100Z,1
2022-10-09T23:19:21.550Z,1
2022-10-09T23:21:04.889Z,1
2022-10-09T23:22:48.306Z,2
2022-10-09T23:24:31.677Z,2
2022-10-09T23:26:15.080Z,2
2022-10-09T23:27:58.507Z,2
2022-10-09T23:31:24.932Z,2
2022-10-09T23:33:08.344Z,2
2022-10-09T23:34:51.790Z,1
2022-10-09T23:36:35.129Z,1
2022-10-09T23:38:18.549Z,2
2022-10-09T23:40:01.937Z,2
2022-10-09T23:41:45.322Z,1
2022-10-09T23:46:54.567Z,1
2022-10-09T23:48:37.998Z,2
2022-10-09T23:50:21.359Z,2
2022-10-09T23:52:04.774Z,2
2022-10-09T23:53:48.211Z,2
2022-10-09T23:55:31.539Z,1
2022-10-09T23:57:14.954Z,2
